Dunkirk, New York
Current Conditions -  °F | °C
As of 10:53 PM on Sunday 21 Dec 2014 (Local Time) from KDKK Reporting Station
Overcast Overcast  
Wind Chill: 22°   Ceiling: 2100
Heat Index: 30°   Visibility: 10mi
Dew Point: 23°   Wind: 8mph
Humidity: 75%   Direction: 140°SE
Pressure: 30.28"   Gusts: NA
Location:  42.49°N, 79.34°W
Report Text: KDKK 220353Z AUTO 14007KT 10SM OVC021 M01/M05 A3028 RMK AO2 SLP261 T10111050 $
Loading
Personal Weather Stations






























Interactive Weather Map New forecast layout! Learn more

10-Day Weather Forecast

Advertisements
Track Severe Weather on mobile